createdAt,value
2017-09-17T00:02:33.030Z,9.20
2017-09-17T00:05:01.323Z,6.52
2017-09-17T00:07:30.531Z,6.18
2017-09-17T00:09:58.778Z,8.88
2017-09-17T00:12:27.069Z,7.20
2017-09-17T00:14:54.577Z,6.86
2017-09-17T00:17:22.864Z,6.74
2017-09-17T00:19:51.162Z,9.38
2017-09-17T00:22:19.421Z,8.32
2017-09-17T00:24:48.738Z,7.34
2017-09-17T00:27:18.951Z,14.22
2017-09-17T00:29:48.333Z,10.88
2017-09-17T00:32:19.930Z,7.24
2017-09-17T00:34:48.178Z,10.80
2017-09-17T00:37:17.439Z,7.10
2017-09-17T00:39:46.540Z,7.04
2017-09-17T00:42:16.381Z,6.70
2017-09-17T00:44:44.635Z,7.96
2017-09-17T00:47:12.919Z,7.24
2017-09-17T00:49:41.174Z,6.84
2017-09-17T00:52:10.454Z,8.12
2017-09-17T00:54:38.788Z,7.24
2017-09-17T00:57:15.076Z,11.68
2017-09-17T00:59:43.670Z,8.80
2017-09-17T01:02:14.484Z,7.20
2017-09-17T01:04:42.778Z,6.54
2017-09-17T01:07:12.010Z,6.88
2017-09-17T01:09:40.267Z,10.58
2017-09-17T01:12:12.946Z,13.20
2017-09-17T01:14:41.216Z,8.20
2017-09-17T01:17:09.470Z,9.00
2017-09-17T01:19:44.491Z,8.78
2017-09-17T01:22:12.741Z,8.02
2017-09-17T01:24:44.091Z,7.42
2017-09-17T01:27:12.348Z,10.32
2017-09-17T01:29:50.801Z,10.80
2017-09-17T01:32:20.015Z,7.76
2017-09-17T01:34:49.300Z,12.54
2017-09-17T01:37:18.851Z,9.86
2017-09-17T01:39:53.027Z,8.58
2017-09-17T01:42:21.275Z,9.04
2017-09-17T01:44:49.530Z,10.44
2017-09-17T01:47:19.616Z,10.00
2017-09-17T01:49:48.874Z,11.38
2017-09-17T01:52:18.282Z,11.16
2017-09-17T01:54:56.465Z,8.66
2017-09-17T01:57:24.783Z,9.08
2017-09-17T01:59:57.807Z,17.90
2017-09-17T02:02:26.094Z,8.14
2017-09-17T02:04:54.347Z,8.74
2017-09-17T02:07:21.835Z,13.50
2017-09-17T02:09:54.331Z,9.44
2017-09-17T02:12:22.589Z,9.22
2017-09-17T02:14:58.302Z,8.46
2017-09-17T02:17:26.558Z,11.76
2017-09-17T02:19:54.812Z,8.04
2017-09-17T02:22:23.099Z,9.48
2017-09-17T02:24:56.612Z,12.00
2017-09-17T02:27:24.903Z,9.02
2017-09-17T02:29:53.207Z,8.10
2017-09-17T02:32:21.463Z,13.00
2017-09-17T02:34:52.903Z,8.08
2017-09-17T02:37:20.395Z,8.28
2017-09-17T02:39:50.111Z,10.48
2017-09-17T02:42:19.655Z,8.76
2017-09-17T02:44:48.943Z,8.92
2017-09-17T02:47:18.511Z,9.14
2017-09-17T02:49:50.197Z,11.32
2017-09-17T02:52:19.654Z,10.08
2017-09-17T02:54:48.755Z,8.72
2017-09-17T02:57:18.044Z,11.76
2017-09-17T02:59:46.359Z,8.02
2017-09-17T03:02:14.612Z,8.90
2017-09-17T03:04:52.810Z,9.46
2017-09-17T03:07:21.062Z,9.36
2017-09-17T03:09:49.356Z,8.50
2017-09-17T03:12:18.867Z,8.40
2017-09-17T03:14:55.050Z,8.14
2017-09-17T03:17:23.314Z,10.88
2017-09-17T03:19:52.579Z,11.60
2017-09-17T03:22:20.859Z,8.34
2017-09-17T03:24:52.592Z,10.96
2017-09-17T03:27:20.860Z,9.10
2017-09-17T03:32:56.423Z,9.38
2017-09-17T03:35:24.703Z,7.92
2017-09-17T03:37:55.962Z,7.24
2017-09-17T03:40:24.256Z,7.78
2017-09-17T03:42:54.517Z,7.06
2017-09-17T03:45:22.796Z,9.30
2017-09-17T03:47:56.250Z,8.28
2017-09-17T03:50:24.515Z,8.26
2017-09-17T03:53:13.370Z,7.62
2017-09-17T03:55:41.614Z,7.32
2017-09-17T03:58:22.896Z,8.52
2017-09-17T04:00:51.160Z,10.48
2017-09-17T04:03:19.415Z,8.84
2017-09-17T04:05:48.950Z,8.28
2017-09-17T04:08:27.274Z,8.24
2017-09-17T04:10:55.554Z,7.82
2017-09-17T04:13:24.732Z,7.32
2017-09-17T04:15:53.022Z,8.94
2017-09-17T04:18:31.442Z,8.86
2017-09-17T04:20:59.745Z,7.64
2017-09-17T04:23:31.972Z,8.36
2017-09-17T04:26:00.263Z,8.28
2017-09-17T04:28:41.610Z,8.06
2017-09-17T04:31:09.894Z,10.18
2017-09-17T04:33:38.192Z,7.14
2017-09-17T04:36:06.467Z,11.38
2017-09-17T04:38:34.712Z,7.68
2017-09-17T04:41:02.995Z,9.24
2017-09-17T04:43:31.249Z,7.54
2017-09-17T04:45:59.527Z,7.82
2017-09-17T04:48:30.969Z,8.76
2017-09-17T04:50:59.251Z,9.14
2017-09-17T04:53:28.503Z,9.84
2017-09-17T04:55:56.793Z,9.72
2017-09-17T04:58:27.057Z,8.06
2017-09-17T05:00:55.359Z,7.60
2017-09-17T05:03:27.481Z,9.20
2017-09-17T05:05:55.775Z,8.06
2017-09-17T05:08:29.466Z,11.70
2017-09-17T05:10:57.755Z,7.64
2017-09-17T05:13:36.174Z,10.40
2017-09-17T05:16:04.447Z,8.14
2017-09-17T05:18:43.179Z,9.44
2017-09-17T05:21:11.439Z,9.06
2017-09-17T05:23:38.943Z,8.04
2017-09-17T05:26:07.246Z,6.62
2017-09-17T05:28:35.494Z,7.52
2017-09-17T05:31:03.762Z,9.10
2017-09-17T05:33:38.507Z,8.44
2017-09-17T05:36:06.754Z,7.90
2017-09-17T05:38:54.845Z,8.50
2017-09-17T05:41:23.130Z,10.78
2017-09-17T05:43:51.400Z,8.74
2017-09-17T05:46:19.695Z,9.12
2017-09-17T05:48:48.946Z,9.56
2017-09-17T05:51:18.602Z,10.20
2017-09-17T05:53:50.096Z,12.36
2017-09-17T05:56:19.463Z,8.20
2017-09-17T05:59:01.663Z,11.24
2017-09-17T06:01:29.945Z,12.92
2017-09-17T06:06:50.992Z,9.46
2017-09-17T06:09:19.241Z,9.22
2017-09-17T06:11:48.470Z,9.08
2017-09-17T06:14:17.847Z,13.14
2017-09-17T06:16:56.467Z,9.68
2017-09-17T06:19:24.756Z,9.50
2017-09-17T06:21:57.018Z,9.48
2017-09-17T06:24:25.271Z,11.74
2017-09-17T06:27:10.571Z,12.54
2017-09-17T06:29:38.835Z,10.80
2017-09-17T06:32:07.104Z,9.64
2017-09-17T06:34:45.339Z,11.28
2017-09-17T06:37:13.599Z,10.12
2017-09-17T06:39:43.802Z,10.92
2017-09-17T06:42:12.095Z,13.74
2017-09-17T06:47:34.646Z,12.82
2017-09-17T06:50:02.894Z,11.12
2017-09-17T06:52:49.198Z,14.64
2017-09-17T06:55:18.444Z,14.68
2017-09-17T06:57:58.543Z,10.88
2017-09-17T07:00:26.790Z,11.92
2017-09-17T07:03:14.152Z,11.96
2017-09-17T07:05:41.651Z,15.44
2017-09-17T07:08:09.145Z,9.54
2017-09-17T07:10:37.435Z,12.06
2017-09-17T07:13:05.695Z,12.00
2017-09-17T07:15:37.002Z,16.74
2017-09-17T07:18:05.264Z,8.98
2017-09-17T07:20:48.867Z,14.54
2017-09-17T07:23:18.997Z,11.86
2017-09-17T07:25:59.123Z,8.72
2017-09-17T07:28:27.371Z,8.02
2017-09-17T07:31:05.387Z,10.22
2017-09-17T07:33:33.639Z,9.02
2017-09-17T07:36:23.835Z,8.10
2017-09-17T07:38:52.941Z,7.50
2017-09-17T07:41:21.230Z,13.36
2017-09-17T07:43:49.527Z,7.80
2017-09-17T07:46:19.267Z,7.86
2017-09-17T07:48:49.684Z,9.42
2017-09-17T07:51:19.302Z,7.80
2017-09-17T07:53:48.616Z,7.72
2017-09-17T07:56:18.421Z,7.96
2017-09-17T07:58:47.727Z,8.52
2017-09-17T08:01:16.437Z,7.80
2017-09-17T08:03:50.079Z,6.32
2017-09-17T08:06:19.667Z,8.80
2017-09-17T08:08:49.967Z,8.64
2017-09-17T08:11:18.557Z,7.50
2017-09-17T08:13:50.274Z,7.28
2017-09-17T08:16:19.670Z,13.12
2017-09-17T08:18:49.798Z,9.12
2017-09-17T08:21:18.050Z,8.00
2017-09-17T08:23:45.538Z,8.56
2017-09-17T08:26:13.814Z,8.36
2017-09-17T08:28:41.301Z,8.36
2017-09-17T08:31:09.588Z,8.52
2017-09-17T08:33:37.839Z,8.64
2017-09-17T08:36:06.083Z,9.64
2017-09-17T08:38:34.363Z,8.34
2017-09-17T08:41:02.615Z,7.66
2017-09-17T08:43:30.899Z,7.48
2017-09-17T08:45:59.158Z,6.70
2017-09-17T08:48:27.479Z,8.14
2017-09-17T08:50:55.731Z,8.36
2017-09-17T08:53:23.998Z,7.70
2017-09-17T08:55:52.279Z,7.16
2017-09-17T08:58:20.568Z,9.70
2017-09-17T09:00:50.017Z,7.98
2017-09-17T09:03:19.187Z,9.00
2017-09-17T09:05:48.646Z,8.50
2017-09-17T09:08:18.465Z,7.90
2017-09-17T09:10:47.615Z,9.28
2017-09-17T09:13:16.580Z,7.86
2017-09-17T09:15:44.839Z,7.52
2017-09-17T09:18:13.107Z,7.28
2017-09-17T09:20:41.434Z,8.92
2017-09-17T09:23:10.686Z,8.42
2017-09-17T09:25:38.968Z,8.78
2017-09-17T09:28:08.185Z,7.02
2017-09-17T09:30:36.477Z,8.56
2017-09-17T09:33:11.854Z,10.04
2017-09-17T09:35:40.150Z,6.24
2017-09-17T09:38:21.724Z,7.82
2017-09-17T09:40:49.993Z,7.48
2017-09-17T09:43:20.227Z,15.68
2017-09-17T09:45:49.162Z,8.64
2017-09-17T09:48:18.468Z,8.60
2017-09-17T09:50:48.063Z,5.98
2017-09-17T09:53:32.968Z,6.52
2017-09-17T09:56:01.221Z,10.66
2017-09-17T09:58:30.448Z,11.68
2017-09-17T10:00:58.739Z,7.86
2017-09-17T10:06:26.082Z,7.74
2017-09-17T10:08:54.340Z,6.62
2017-09-17T10:11:22.604Z,6.42
2017-09-17T10:13:50.903Z,6.98
2017-09-17T10:22:16.470Z,6.10
2017-09-17T10:24:44.780Z,6.50
2017-09-17T10:27:14.062Z,7.40
2017-09-17T10:29:42.323Z,6.16
2017-09-17T10:32:36.294Z,5.64
2017-09-17T10:35:04.579Z,5.42
2017-09-17T10:37:39.844Z,5.88
2017-09-17T10:40:08.166Z,6.30
2017-09-17T10:42:36.632Z,5.96
2017-09-17T10:45:04.905Z,8.10
2017-09-17T10:47:34.138Z,5.82
2017-09-17T10:50:02.448Z,5.48
2017-09-17T10:52:30.711Z,6.44
2017-09-17T10:54:58.999Z,6.30
2017-09-17T10:57:38.240Z,6.92
2017-09-17T11:00:06.527Z,5.78
2017-09-17T11:05:35.227Z,5.52
2017-09-17T11:08:03.494Z,9.86
2017-09-17T11:10:32.778Z,5.76
2017-09-17T11:13:01.044Z,10.10
2017-09-17T11:15:29.309Z,6.22
2017-09-17T11:17:57.603Z,6.06
2017-09-17T11:20:25.852Z,7.18
2017-09-17T11:22:54.108Z,7.68
2017-09-17T11:25:24.330Z,6.36
2017-09-17T11:27:52.574Z,7.02
2017-09-17T11:30:22.820Z,7.56
2017-09-17T11:32:51.102Z,6.20
2017-09-17T11:35:31.997Z,9.42
2017-09-17T11:38:00.250Z,7.12
2017-09-17T11:43:27.234Z,7.88
2017-09-17T11:45:55.529Z,5.76
2017-09-17T11:48:23.820Z,5.92
2017-09-17T11:50:52.112Z,4.98
2017-09-17T11:53:32.922Z,7.16
2017-09-17T11:56:01.211Z,5.96
2017-09-17T11:58:36.276Z,5.10
2017-09-17T12:01:04.576Z,6.08
2017-09-17T12:06:27.136Z,4.00
2017-09-17T12:08:55.430Z,4.44
2017-09-17T12:11:23.678Z,3.92
2017-09-17T12:13:51.175Z,4.84
2017-09-17T12:16:21.779Z,5.66
2017-09-17T12:18:49.594Z,3.80
2017-09-17T12:21:19.654Z,6.60
2017-09-17T12:23:49.108Z,5.32
2017-09-17T12:26:19.319Z,3.52
2017-09-17T12:28:48.574Z,4.18
2017-09-17T12:31:17.911Z,3.72
2017-09-17T12:33:46.531Z,5.74
2017-09-17T12:36:14.779Z,5.94
2017-09-17T12:38:43.032Z,4.42
2017-09-17T12:41:11.314Z,6.14
2017-09-17T12:43:40.579Z,4.00
2017-09-17T12:46:08.827Z,5.92
2017-09-17T12:48:51.100Z,5.66
2017-09-17T12:51:19.357Z,5.36
2017-09-17T12:53:49.635Z,4.38
2017-09-17T12:56:19.447Z,5.22
2017-09-17T12:58:49.267Z,8.38
2017-09-17T13:01:18.746Z,4.02
2017-09-17T13:03:50.482Z,5.20
2017-09-17T13:06:19.682Z,3.30
2017-09-17T13:08:51.434Z,3.52
2017-09-17T13:11:19.690Z,5.82
2017-09-17T13:13:50.098Z,3.36
2017-09-17T13:16:18.966Z,6.00
2017-09-17T13:19:06.963Z,3.98
2017-09-17T13:21:35.243Z,3.74
2017-09-17T13:24:07.042Z,3.42
2017-09-17T13:26:35.303Z,3.50
2017-09-17T13:29:23.765Z,3.32
2017-09-17T13:31:52.037Z,4.66
2017-09-17T13:34:19.566Z,4.82
2017-09-17T13:37:00.875Z,5.32
2017-09-17T13:39:29.167Z,3.86
2017-09-17T13:42:05.095Z,3.86
2017-09-17T13:44:33.378Z,4.84
2017-09-17T13:47:01.660Z,3.98
2017-09-17T13:49:29.927Z,8.82
2017-09-17T13:52:06.503Z,4.24
2017-09-17T13:54:34.768Z,5.94
2017-09-17T13:57:05.001Z,5.94
2017-09-17T13:59:36.874Z,4.06
2017-09-17T14:05:08.490Z,5.96
2017-09-17T14:10:36.008Z,5.48
2017-09-17T14:13:14.220Z,4.86
2017-09-17T14:15:42.493Z,5.14
2017-09-17T14:18:23.353Z,4.62
2017-09-17T14:20:51.607Z,6.80
2017-09-17T14:23:35.176Z,3.42
2017-09-17T14:26:03.431Z,3.50
2017-09-17T14:28:36.823Z,5.38
2017-09-17T14:31:05.086Z,3.86
2017-09-17T14:33:53.055Z,6.22
2017-09-17T14:36:21.333Z,4.36
2017-09-17T14:38:49.618Z,4.78
2017-09-17T14:41:24.250Z,4.70
2017-09-17T14:43:52.503Z,3.78
2017-09-17T14:46:20.768Z,3.62
2017-09-17T14:48:49.779Z,3.50
2017-09-17T14:51:24.020Z,4.12
2017-09-17T14:53:52.303Z,5.76
2017-09-17T14:56:38.951Z,3.98
2017-09-17T14:59:07.217Z,3.18
2017-09-17T15:01:35.723Z,3.66
2017-09-17T15:04:04.006Z,6.10
2017-09-17T15:06:32.271Z,4.34
2017-09-17T15:09:00.570Z,3.98
2017-09-17T15:11:29.848Z,4.08
2017-09-17T15:13:58.111Z,5.48
2017-09-17T15:16:34.619Z,3.98
2017-09-17T15:19:02.867Z,4.00
2017-09-17T15:21:36.991Z,4.16
2017-09-17T15:24:05.283Z,4.28
2017-09-17T15:26:33.548Z,5.08
2017-09-17T15:29:01.836Z,5.28
2017-09-17T15:31:31.107Z,4.68
2017-09-17T15:33:59.434Z,4.74
2017-09-17T15:36:36.099Z,4.82
2017-09-17T15:39:04.431Z,5.84
2017-09-17T15:41:34.612Z,4.38
2017-09-17T15:44:02.916Z,4.20
2017-09-17T15:46:46.581Z,4.40
2017-09-17T15:49:14.876Z,4.30
2017-09-17T15:51:45.104Z,5.84
2017-09-17T15:54:13.375Z,5.86
2017-09-17T15:56:49.174Z,4.96
2017-09-17T15:59:18.124Z,6.52
2017-09-17T16:01:49.573Z,5.96
2017-09-17T16:04:18.942Z,4.64
2017-09-17T16:07:01.018Z,5.76
2017-09-17T16:09:29.270Z,5.80
2017-09-17T16:11:58.693Z,6.82
2017-09-17T16:14:26.963Z,5.20
2017-09-17T16:16:55.212Z,4.60
2017-09-17T16:19:23.523Z,4.54
2017-09-17T16:21:52.732Z,5.20
2017-09-17T16:24:20.995Z,5.68
2017-09-17T16:26:52.891Z,5.22
2017-09-17T16:29:21.163Z,6.46
2017-09-17T16:31:50.716Z,4.70
2017-09-17T16:34:19.350Z,4.82
2017-09-17T16:36:49.695Z,5.54
2017-09-17T16:39:19.117Z,4.72
2017-09-17T16:42:00.508Z,5.26
2017-09-17T16:44:28.881Z,5.38
2017-09-17T16:46:57.536Z,4.94
2017-09-17T16:49:25.830Z,6.24
2017-09-17T16:52:13.931Z,6.54
2017-09-17T16:54:42.493Z,5.96
2017-09-17T16:57:18.671Z,4.62
2017-09-17T16:59:48.352Z,4.12
2017-09-17T17:02:16.685Z,5.14
2017-09-17T17:04:44.982Z,8.76
2017-09-17T17:07:13.236Z,7.92
2017-09-17T17:09:41.494Z,6.82
2017-09-17T17:12:09.787Z,4.50
2017-09-17T17:14:38.083Z,5.72
2017-09-17T17:17:06.339Z,6.84
2017-09-17T17:19:34.591Z,6.30
2017-09-17T17:22:02.874Z,5.52
2017-09-17T17:24:31.127Z,7.48
2017-09-17T17:26:59.439Z,5.32
2017-09-17T17:29:27.688Z,5.74
2017-09-17T17:31:55.172Z,5.20
2017-09-17T17:34:23.487Z,9.20
2017-09-17T17:36:51.740Z,7.36
2017-09-17T17:39:19.996Z,5.38
2017-09-17T17:41:48.301Z,7.32
2017-09-17T17:44:29.174Z,6.30
2017-09-17T17:46:57.475Z,7.66
2017-09-17T17:49:25.734Z,5.16
2017-09-17T17:51:53.999Z,6.92
2017-09-17T17:54:22.291Z,8.58
2017-09-17T17:56:50.551Z,7.00
2017-09-17T17:59:36.235Z,5.40
2017-09-17T18:02:04.493Z,8.04
2017-09-17T18:04:32.742Z,6.16
2017-09-17T18:07:01.033Z,5.60
2017-09-17T18:09:29.300Z,5.68
2017-09-17T18:11:57.591Z,5.94
2017-09-17T18:14:33.856Z,5.58
2017-09-17T18:17:02.103Z,6.82
2017-09-17T18:19:35.335Z,8.76
2017-09-17T18:22:02.822Z,6.26
2017-09-17T18:24:49.371Z,5.18
2017-09-17T18:27:18.222Z,5.86
2017-09-17T18:30:05.420Z,4.94
2017-09-17T18:32:33.671Z,7.08
2017-09-17T18:35:07.623Z,6.52
2017-09-17T18:37:35.891Z,5.04
2017-09-17T18:40:05.158Z,6.00
2017-09-17T18:42:33.468Z,5.70
2017-09-17T18:47:55.381Z,6.06
2017-09-17T18:50:48.383Z,7.50
2017-09-17T18:56:11.267Z,5.50
2017-09-17T18:58:39.555Z,8.28
2017-09-17T19:01:11.255Z,5.48
2017-09-17T19:03:39.532Z,6.60
2017-09-17T19:06:07.784Z,7.76
2017-09-17T19:08:36.078Z,7.08
2017-09-17T19:11:06.304Z,8.80
2017-09-17T19:13:34.590Z,6.02
2017-09-17T19:16:09.487Z,5.78
2017-09-17T19:18:37.739Z,8.14
2017-09-17T19:21:10.719Z,6.48
2017-09-17T19:23:38.985Z,5.96
2017-09-17T19:26:17.559Z,6.72
2017-09-17T19:28:45.838Z,6.18
2017-09-17T19:31:16.747Z,7.22
2017-09-17T19:33:45.027Z,5.90
2017-09-17T19:36:13.307Z,6.54
2017-09-17T19:38:41.554Z,7.30
2017-09-17T19:41:09.852Z,7.46
2017-09-17T19:43:38.120Z,6.00
2017-09-17T19:46:05.619Z,6.26
2017-09-17T19:48:33.907Z,6.52
2017-09-17T19:51:02.209Z,7.58
2017-09-17T19:53:30.462Z,6.72
2017-09-17T19:55:59.632Z,6.92
2017-09-17T19:58:27.919Z,7.82
2017-09-17T20:00:58.162Z,6.90
2017-09-17T20:03:26.447Z,7.76
2017-09-17T20:06:02.564Z,7.30
2017-09-17T20:08:30.847Z,6.02
2017-09-17T20:11:00.056Z,7.74
2017-09-17T20:13:28.307Z,6.34
2017-09-17T20:16:00.170Z,9.10
2017-09-17T20:18:28.419Z,6.80
2017-09-17T20:21:03.911Z,11.42
2017-09-17T20:23:32.159Z,7.60
2017-09-17T20:26:01.417Z,9.78
2017-09-17T20:28:29.668Z,8.44
2017-09-17T20:31:10.295Z,9.98
2017-09-17T20:33:38.551Z,10.36
2017-09-17T20:36:15.424Z,9.56
2017-09-17T20:38:43.690Z,8.62
2017-09-17T20:41:23.414Z,8.06
2017-09-17T20:43:51.719Z,10.82
2017-09-17T20:46:25.659Z,8.52
2017-09-17T20:48:53.934Z,8.70
2017-09-17T20:51:24.183Z,8.96
2017-09-17T20:53:52.444Z,11.38
2017-09-17T20:56:28.543Z,8.30
2017-09-17T20:58:56.831Z,8.04
2017-09-17T21:01:25.079Z,7.96
2017-09-17T21:03:53.364Z,8.46
2017-09-17T21:06:21.611Z,9.06
2017-09-17T21:08:49.902Z,9.34
2017-09-17T21:11:18.223Z,7.74
2017-09-17T21:13:48.343Z,16.76
2017-09-17T21:16:18.678Z,7.92
2017-09-17T21:18:47.974Z,7.80
2017-09-17T21:21:16.712Z,8.02
2017-09-17T21:23:44.992Z,7.68
2017-09-17T21:26:19.590Z,8.84
2017-09-17T21:28:49.371Z,6.76
2017-09-17T21:31:21.442Z,8.46
2017-09-17T21:33:49.699Z,8.08
2017-09-17T21:36:39.283Z,7.26
2017-09-17T21:39:07.544Z,8.14
2017-09-17T21:41:42.999Z,8.16
2017-09-17T21:44:11.252Z,8.08
2017-09-17T21:46:43.522Z,10.72
2017-09-17T21:49:11.771Z,10.30
2017-09-17T21:51:41.080Z,6.84
2017-09-17T21:54:09.324Z,7.36
2017-09-17T21:56:48.855Z,8.80
2017-09-17T21:59:17.907Z,10.24
2017-09-17T22:01:46.819Z,8.54
2017-09-17T22:04:15.107Z,8.56
2017-09-17T22:06:50.430Z,7.20
2017-09-17T22:09:20.138Z,7.80
2017-09-17T22:12:00.940Z,7.76
2017-09-17T22:14:29.202Z,7.36
2017-09-17T22:16:57.462Z,7.14
2017-09-17T22:19:25.755Z,12.48
2017-09-17T22:22:01.510Z,7.50
2017-09-17T22:24:29.823Z,9.78
2017-09-17T22:27:01.931Z,8.66
2017-09-17T22:29:30.214Z,9.96
2017-09-17T22:34:52.691Z,10.54
2017-09-17T22:37:20.946Z,8.44
2017-09-17T22:39:49.223Z,9.34
2017-09-17T22:42:17.995Z,12.02
2017-09-17T22:44:56.515Z,10.08
2017-09-17T22:47:24.780Z,11.86
2017-09-17T22:49:53.059Z,8.24
2017-09-17T22:52:21.326Z,9.32
2017-09-17T22:54:49.611Z,9.48
2017-09-17T22:57:19.823Z,12.00
2017-09-17T22:59:58.100Z,10.98
2017-09-17T23:02:26.391Z,10.58
2017-09-17T23:04:56.586Z,9.48
2017-09-17T23:07:24.841Z,10.88
2017-09-17T23:09:54.116Z,9.24
2017-09-17T23:12:22.387Z,10.58
2017-09-17T23:15:03.054Z,9.94
2017-09-17T23:17:31.346Z,9.48
2017-09-17T23:19:59.602Z,10.40
2017-09-17T23:22:27.858Z,11.36
2017-09-17T23:24:56.158Z,10.92
2017-09-17T23:27:30.321Z,9.94
2017-09-17T23:29:58.612Z,9.82
2017-09-17T23:32:28.799Z,10.14
2017-09-17T23:34:57.082Z,11.86
2017-09-17T23:37:33.350Z,9.76
2017-09-17T23:40:01.636Z,15.08
2017-09-17T23:42:33.798Z,11.12
2017-09-17T23:45:02.047Z,9.22
2017-09-17T23:47:30.331Z,9.44
2017-09-17T23:49:58.582Z,9.48
2017-09-17T23:52:40.368Z,10.76
2017-09-17T23:55:08.651Z,10.78
2017-09-17T23:57:50.539Z,10.70
